sensor_id;sensor_type;location;lat;lon;timestamp;pressure;altitude;pressure_sealevel;temperature;humidity
62548;BME280;48602;45.192;5.722;2023-08-31T00:00:34;98919.88;;;17.41;60.35
62548;BME280;48602;45.192;5.722;2023-08-31T00:03:00;98925.19;;;17.41;60.84
62548;BME280;48602;45.192;5.722;2023-08-31T00:05:25;98926.91;;;17.42;61.12
62548;BME280;48602;45.192;5.722;2023-08-31T00:07:53;98925.06;;;17.43;61.12
62548;BME280;48602;45.192;5.722;2023-08-31T00:10:19;98914.41;;;17.43;60.51
62548;BME280;48602;45.192;5.722;2023-08-31T00:12:44;98910.06;;;17.42;60.43
62548;BME280;48602;45.192;5.722;2023-08-31T00:15:10;98917.22;;;17.41;60.19
62548;BME280;48602;45.192;5.722;2023-08-31T00:17:36;98925.31;;;17.40;60.57
62548;BME280;48602;45.192;5.722;2023-08-31T00:20:03;98931.91;;;17.34;60.10
62548;BME280;48602;45.192;5.722;2023-08-31T00:22:31;98935.53;;;17.33;60.43
62548;BME280;48602;45.192;5.722;2023-08-31T00:24:56;98931.28;;;17.31;60.24
62548;BME280;48602;45.192;5.722;2023-08-31T00:27:22;98935.25;;;17.25;60.35
62548;BME280;48602;45.192;5.722;2023-08-31T00:29:48;98934.81;;;17.19;60.44
62548;BME280;48602;45.192;5.722;2023-08-31T00:32:18;98937.88;;;17.13;60.41
62548;BME280;48602;45.192;5.722;2023-08-31T00:34:48;98938.09;;;17.09;61.05
62548;BME280;48602;45.192;5.722;2023-08-31T00:37:13;98933.00;;;17.06;61.10
62548;BME280;48602;45.192;5.722;2023-08-31T00:39:39;98928.63;;;17.05;62.18
62548;BME280;48602;45.192;5.722;2023-08-31T00:42:04;98932.34;;;17.03;62.20
62548;BME280;48602;45.192;5.722;2023-08-31T00:44:30;98943.22;;;17.00;62.19
62548;BME280;48602;45.192;5.722;2023-08-31T00:46:55;98940.75;;;16.97;63.14
62548;BME280;48602;45.192;5.722;2023-08-31T00:49:21;98949.72;;;16.96;63.46
62548;BME280;48602;45.192;5.722;2023-08-31T00:51:46;98951.75;;;16.92;63.61
62548;BME280;48602;45.192;5.722;2023-08-31T00:54:16;98946.53;;;16.91;63.29
62548;BME280;48602;45.192;5.722;2023-08-31T00:56:42;98944.81;;;16.90;62.80
62548;BME280;48602;45.192;5.722;2023-08-31T00:59:08;98950.16;;;16.90;63.31
62548;BME280;48602;45.192;5.722;2023-08-31T01:01:40;98945.69;;;16.90;63.27
62548;BME280;48602;45.192;5.722;2023-08-31T01:14:58;98954.94;;;16.85;64.21
62548;BME280;48602;45.192;5.722;2023-08-31T01:17:26;98949.59;;;16.85;64.05
62548;BME280;48602;45.192;5.722;2023-08-31T01:19:54;98954.94;;;16.85;64.50
62548;BME280;48602;45.192;5.722;2023-08-31T01:23:00;98949.69;;;16.83;64.97
62548;BME280;48602;45.192;5.722;2023-08-31T01:25:29;98948.00;;;16.82;64.69
62548;BME280;48602;45.192;5.722;2023-08-31T01:27:56;98952.38;;;16.83;65.49
62548;BME280;48602;45.192;5.722;2023-08-31T01:30:23;98956.84;;;16.83;65.45
62548;BME280;48602;45.192;5.722;2023-08-31T01:32:48;98958.53;;;16.84;65.47
62548;BME280;48602;45.192;5.722;2023-08-31T01:35:16;98958.53;;;16.84;65.49
62548;BME280;48602;45.192;5.722;2023-08-31T01:38:11;98962.16;;;16.83;65.58
62548;BME280;48602;45.192;5.722;2023-08-31T01:41:00;98961.31;;;16.82;65.83
62548;BME280;48602;45.192;5.722;2023-08-31T01:43:29;98959.72;;;16.80;65.89
62548;BME280;48602;45.192;5.722;2023-08-31T01:45:56;98958.22;;;16.76;66.37
62548;BME280;48602;45.192;5.722;2023-08-31T01:48:23;98963.56;;;16.76;66.34
62548;BME280;48602;45.192;5.722;2023-08-31T01:50:49;98966.31;;;16.74;66.23
62548;BME280;48602;45.192;5.722;2023-08-31T01:53:14;98961.09;;;16.72;66.06
62548;BME280;48602;45.192;5.722;2023-08-31T01:55:39;98958.53;;;16.71;66.42
62548;BME280;48602;45.192;5.722;2023-08-31T01:58:05;98955.97;;;16.69;66.68
62548;BME280;48602;45.192;5.722;2023-08-31T02:00:30;98956.81;;;16.70;66.74
62548;BME280;48602;45.192;5.722;2023-08-31T02:03:00;98958.44;;;16.72;66.66
62548;BME280;48602;45.192;5.722;2023-08-31T02:05:25;98951.31;;;16.73;66.51
62548;BME280;48602;45.192;5.722;2023-08-31T02:07:51;98945.03;;;16.74;66.81
62548;BME280;48602;45.192;5.722;2023-08-31T02:10:16;98950.25;;;16.76;66.51
62548;BME280;48602;45.192;5.722;2023-08-31T02:12:41;98946.72;;;16.75;66.78
62548;BME280;48602;45.192;5.722;2023-08-31T02:15:07;98948.63;;;16.73;66.81
62548;BME280;48602;45.192;5.722;2023-08-31T02:17:36;98951.31;;;16.73;66.31
62548;BME280;48602;45.192;5.722;2023-08-31T02:20:01;98950.25;;;16.76;66.42
62548;BME280;48602;45.192;5.722;2023-08-31T02:22:34;98951.06;;;16.76;65.94
62548;BME280;48602;45.192;5.722;2023-08-31T02:25:00;98949.50;;;16.73;66.05
62548;BME280;48602;45.192;5.722;2023-08-31T02:27:26;98948.84;;;16.70;66.72
62548;BME280;48602;45.192;5.722;2023-08-31T02:29:52;98955.41;;;16.64;66.61
62548;BME280;48602;45.192;5.722;2023-08-31T02:32:17;98952.19;;;16.59;66.82
62548;BME280;48602;45.192;5.722;2023-08-31T02:34:42;98948.91;;;16.56;67.78
62548;BME280;48602;45.192;5.722;2023-08-31T02:37:08;98936.63;;;16.53;67.00
62548;BME280;48602;45.192;5.722;2023-08-31T02:39:33;98946.63;;;16.50;67.24
62548;BME280;48602;45.192;5.722;2023-08-31T02:41:58;98952.91;;;16.49;67.69
62548;BME280;48602;45.192;5.722;2023-08-31T02:44:24;98949.38;;;16.48;67.03
62548;BME280;48602;45.192;5.722;2023-08-31T02:46:49;98944.16;;;16.47;67.32
62548;BME280;48602;45.192;5.722;2023-08-31T02:49:14;98942.47;;;16.46;67.55
62548;BME280;48602;45.192;5.722;2023-08-31T02:51:40;98953.09;;;16.46;67.22
62548;BME280;48602;45.192;5.722;2023-08-31T02:54:05;98947.88;;;16.44;67.36
62548;BME280;48602;45.192;5.722;2023-08-31T02:56:31;98945.31;;;16.42;67.36
62548;BME280;48602;45.192;5.722;2023-08-31T02:58:56;98946.31;;;16.42;67.45
62548;BME280;48602;45.192;5.722;2023-08-31T03:01:21;98951.63;;;16.42;67.54
62548;BME280;48602;45.192;5.722;2023-08-31T03:03:48;98950.78;;;16.41;67.14
62548;BME280;48602;45.192;5.722;2023-08-31T03:06:14;98958.97;;;16.38;67.55
62548;BME280;48602;45.192;5.722;2023-08-31T03:08:40;98962.66;;;16.35;67.74
62548;BME280;48602;45.192;5.722;2023-08-31T03:11:06;98968.47;;;16.28;68.55
62548;BME280;48602;45.192;5.722;2023-08-31T03:13:32;98983.34;;;16.18;68.24
62548;BME280;48602;45.192;5.722;2023-08-31T03:15:59;98980.25;;;15.97;67.70
62548;BME280;48602;45.192;5.722;2023-08-31T03:18:24;98979.53;;;15.81;68.65
62548;BME280;48602;45.192;5.722;2023-08-31T03:20:50;98972.25;;;15.70;68.85
62548;BME280;48602;45.192;5.722;2023-08-31T03:23:15;98976.41;;;15.60;69.32
62548;BME280;48602;45.192;5.722;2023-08-31T03:25:41;98983.06;;;15.53;70.02
62548;BME280;48602;45.192;5.722;2023-08-31T03:28:07;98978.97;;;15.47;69.90
62548;BME280;48602;45.192;5.722;2023-08-31T03:30:33;98980.94;;;15.44;70.08
62548;BME280;48602;45.192;5.722;2023-08-31T03:32:59;98980.00;;;15.45;70.11
62548;BME280;48602;45.192;5.722;2023-08-31T03:35:24;98987.13;;;15.44;70.10
62548;BME280;48602;45.192;5.722;2023-08-31T03:37:55;98976.50;;;15.44;70.06
62548;BME280;48602;45.192;5.722;2023-08-31T03:40:21;98979.06;;;15.46;69.95
62548;BME280;48602;45.192;5.722;2023-08-31T03:42:48;98982.56;;;15.46;70.12
62548;BME280;48602;45.192;5.722;2023-08-31T03:45:13;98990.44;;;15.48;70.36
62548;BME280;48602;45.192;5.722;2023-08-31T03:47:38;98986.94;;;15.47;70.08
62548;BME280;48602;45.192;5.722;2023-08-31T03:50:05;98989.41;;;15.50;70.59
62548;BME280;48602;45.192;5.722;2023-08-31T03:52:30;98992.72;;;15.54;70.44
62548;BME280;48602;45.192;5.722;2023-08-31T03:54:56;99000.66;;;15.55;70.40
62548;BME280;48602;45.192;5.722;2023-08-31T03:57:21;99003.13;;;15.58;69.94
62548;BME280;48602;45.192;5.722;2023-08-31T03:59:47;99002.06;;;15.61;70.40
62548;BME280;48602;45.192;5.722;2023-08-31T04:02:12;98999.47;;;15.59;69.72
62548;BME280;48602;45.192;5.722;2023-08-31T04:04:37;99003.84;;;15.60;70.10
62548;BME280;48602;45.192;5.722;2023-08-31T04:07:03;99006.41;;;15.62;69.68
62548;BME280;48602;45.192;5.722;2023-08-31T04:09:28;99008.31;;;15.60;70.17
62548;BME280;48602;45.192;5.722;2023-08-31T04:11:55;99013.75;;;15.58;70.74
62548;BME280;48602;45.192;5.722;2023-08-31T04:14:20;99011.19;;;15.57;70.75
62548;BME280;48602;45.192;5.722;2023-08-31T04:16:46;99018.34;;;15.55;70.59
62548;BME280;48602;45.192;5.722;2023-08-31T04:19:15;99021.09;;;15.53;70.55
62548;BME280;48602;45.192;5.722;2023-08-31T04:21:41;99023.75;;;15.53;70.43
62548;BME280;48602;45.192;5.722;2023-08-31T04:24:06;99027.28;;;15.54;70.79
62548;BME280;48602;45.192;5.722;2023-08-31T04:26:31;99029.09;;;15.53;71.27
62548;BME280;48602;45.192;5.722;2023-08-31T04:28:57;99031.84;;;15.52;70.82
62548;BME280;48602;45.192;5.722;2023-08-31T04:31:22;99042.47;;;15.52;70.81
62548;BME280;48602;45.192;5.722;2023-08-31T04:33:47;99039.91;;;15.50;70.98
62548;BME280;48602;45.192;5.722;2023-08-31T04:36:13;99036.47;;;15.48;71.20
62548;BME280;48602;45.192;5.722;2023-08-31T04:38:39;99048.31;;;15.43;71.45
62548;BME280;48602;45.192;5.722;2023-08-31T04:41:04;99041.97;;;15.31;71.21
62548;BME280;48602;45.192;5.722;2023-08-31T04:43:29;99047.63;;;15.25;71.57
62548;BME280;48602;45.192;5.722;2023-08-31T04:45:55;99053.25;;;15.20;71.63
62548;BME280;48602;45.192;5.722;2023-08-31T04:48:21;99059.66;;;15.16;71.80
62548;BME280;48602;45.192;5.722;2023-08-31T04:50:47;99061.47;;;15.16;72.06
62548;BME280;48602;45.192;5.722;2023-08-31T04:53:12;99067.63;;;15.16;72.11
62548;BME280;48602;45.192;5.722;2023-08-31T04:55:38;99070.13;;;15.19;71.69
62548;BME280;48602;45.192;5.722;2023-08-31T04:58:03;99071.84;;;15.20;72.07
62548;BME280;48602;45.192;5.722;2023-08-31T05:00:29;99070.97;;;15.20;72.27
62548;BME280;48602;45.192;5.722;2023-08-31T05:02:55;99069.25;;;15.19;72.90
62548;BME280;48602;45.192;5.722;2023-08-31T05:05:20;99076.28;;;15.20;72.65
62548;BME280;48602;45.192;5.722;2023-08-31T05:07:46;99081.59;;;15.20;72.69
62548;BME280;48602;45.192;5.722;2023-08-31T05:10:11;99088.53;;;15.22;72.49
62548;BME280;48602;45.192;5.722;2023-08-31T05:12:37;99091.09;;;15.24;72.92
62548;BME280;48602;45.192;5.722;2023-08-31T05:15:03;99097.25;;;15.24;72.85
62548;BME280;48602;45.192;5.722;2023-08-31T05:17:28;99098.94;;;15.25;73.25
62548;BME280;48602;45.192;5.722;2023-08-31T05:19:55;99105.25;;;15.24;72.69
62548;BME280;48602;45.192;5.722;2023-08-31T05:22:20;99098.94;;;15.25;72.57
62548;BME280;48602;45.192;5.722;2023-08-31T05:24:46;99105.25;;;15.24;72.26
62548;BME280;48602;45.192;5.722;2023-08-31T05:27:11;99105.25;;;15.24;71.81
62548;BME280;48602;45.192;5.722;2023-08-31T05:29:37;99106.06;;;15.25;71.41
62548;BME280;48602;45.192;5.722;2023-08-31T05:32:02;99111.28;;;15.26;70.86
62548;BME280;48602;45.192;5.722;2023-08-31T05:34:28;99105.25;;;15.24;71.04
62548;BME280;48602;45.192;5.722;2023-08-31T05:36:54;99110.63;;;15.23;71.19
62548;BME280;48602;45.192;5.722;2023-08-31T05:39:19;99112.44;;;15.22;71.38
62548;BME280;48602;45.192;5.722;2023-08-31T05:41:44;99113.19;;;15.24;71.73
62548;BME280;48602;45.192;5.722;2023-08-31T05:44:10;99108.72;;;15.25;71.73
62548;BME280;48602;45.192;5.722;2023-08-31T05:46:35;99116.50;;;15.28;71.38
62548;BME280;48602;45.192;5.722;2023-08-31T05:49:01;99120.69;;;15.32;71.48
62548;BME280;48602;45.192;5.722;2023-08-31T05:51:27;99122.22;;;15.36;71.42
62548;BME280;48602;45.192;5.722;2023-08-31T05:53:52;99119.50;;;15.38;71.70
62548;BME280;48602;45.192;5.722;2023-08-31T05:56:19;99127.16;;;15.42;71.47
62548;BME280;48602;45.192;5.722;2023-08-31T05:58:44;99126.13;;;15.45;71.46
62548;BME280;48602;45.192;5.722;2023-08-31T06:01:10;99129.47;;;15.48;71.36
62548;BME280;48602;45.192;5.722;2023-08-31T06:03:35;99131.94;;;15.51;71.07
62548;BME280;48602;45.192;5.722;2023-08-31T06:06:01;99137.03;;;15.56;71.25
62548;BME280;48602;45.192;5.722;2023-08-31T06:08:27;99142.97;;;15.59;71.09
62548;BME280;48602;45.192;5.722;2023-08-31T06:10:52;99129.50;;;15.62;71.21
62548;BME280;48602;45.192;5.722;2023-08-31T06:13:18;99132.84;;;15.66;70.71
62548;BME280;48602;45.192;5.722;2023-08-31T06:15:43;99135.31;;;15.69;70.77
62548;BME280;48602;45.192;5.722;2023-08-31T06:18:11;99143.22;;;15.70;70.77
62548;BME280;48602;45.192;5.722;2023-08-31T06:20:37;99148.25;;;15.75;70.51
62548;BME280;48602;45.192;5.722;2023-08-31T06:23:03;99136.38;;;15.81;70.55
62548;BME280;48602;45.192;5.722;2023-08-31T06:25:28;99132.50;;;15.86;70.83
62548;BME280;48602;45.192;5.722;2023-08-31T06:27:54;99132.31;;;15.89;70.53
62548;BME280;48602;45.192;5.722;2023-08-31T06:30:19;99133.06;;;15.91;69.85
62548;BME280;48602;45.192;5.722;2023-08-31T06:32:46;99138.09;;;15.96;70.19
62548;BME280;48602;45.192;5.722;2023-08-31T06:35:12;99141.59;;;15.96;69.71
62548;BME280;48602;45.192;5.722;2023-08-31T06:37:38;99136.19;;;15.98;69.72
62548;BME280;48602;45.192;5.722;2023-08-31T06:40:06;99131.72;;;15.98;69.30
62548;BME280;48602;45.192;5.722;2023-08-31T06:42:31;99138.94;;;15.96;69.43
62548;BME280;48602;45.192;5.722;2023-08-31T06:44:57;99140.19;;;15.91;69.79
62548;BME280;48602;45.192;5.722;2023-08-31T06:47:22;99145.50;;;15.91;69.67
62548;BME280;48602;45.192;5.722;2023-08-31T06:49:49;99151.56;;;15.93;69.88
62548;BME280;48602;45.192;5.722;2023-08-31T06:52:14;99148.63;;;15.97;69.51
62548;BME280;48602;45.192;5.722;2023-08-31T06:54:41;99147.59;;;16.00;69.89
62548;BME280;48602;45.192;5.722;2023-08-31T06:57:07;99149.03;;;16.05;69.65
62548;BME280;48602;45.192;5.722;2023-08-31T06:59:32;99144.06;;;16.14;69.69
62548;BME280;48602;45.192;5.722;2023-08-31T07:01:57;99149.78;;;16.22;69.41
62548;BME280;48602;45.192;5.722;2023-08-31T07:04:23;99153.66;;;16.30;69.24
62548;BME280;48602;45.192;5.722;2023-08-31T07:06:48;99151.38;;;16.38;69.52
62548;BME280;48602;45.192;5.722;2023-08-31T07:09:13;99149.94;;;16.47;69.03
62548;BME280;48602;45.192;5.722;2023-08-31T07:11:39;99153.06;;;16.54;68.96
62548;BME280;48602;45.192;5.722;2023-08-31T07:14:04;99154.59;;;16.58;69.13
62548;BME280;48602;45.192;5.722;2023-08-31T07:16:29;99161.25;;;16.65;68.88
62548;BME280;48602;45.192;5.722;2023-08-31T07:18:55;99159.16;;;16.70;69.02
62548;BME280;48602;45.192;5.722;2023-08-31T07:21:20;99146.28;;;16.77;68.54
62548;BME280;48602;45.192;5.722;2023-08-31T07:23:46;99140.56;;;16.83;68.40
62548;BME280;48602;45.192;5.722;2023-08-31T07:26:11;99142.75;;;16.90;68.50
62548;BME280;48602;45.192;5.722;2023-08-31T07:28:36;99151.16;;;16.97;68.34
62548;BME280;48602;45.192;5.722;2023-08-31T07:31:05;99160.56;;;17.02;68.06
62548;BME280;48602;45.192;5.722;2023-08-31T07:33:32;99156.66;;;17.08;67.79
62548;BME280;48602;45.192;5.722;2023-08-31T07:36:01;99143.75;;;17.15;67.85
62548;BME280;48602;45.192;5.722;2023-08-31T07:38:27;99139.84;;;17.20;67.40
62548;BME280;48602;45.192;5.722;2023-08-31T07:40:53;99137.59;;;17.27;66.88
62548;BME280;48602;45.192;5.722;2023-08-31T07:43:18;99152.25;;;17.34;66.98
62548;BME280;48602;45.192;5.722;2023-08-31T07:45:44;99148.41;;;17.38;66.48
62548;BME280;48602;45.192;5.722;2023-08-31T07:48:09;99162.41;;;17.41;66.38
62548;BME280;48602;45.192;5.722;2023-08-31T07:50:35;99160.34;;;17.45;66.14
62548;BME280;48602;45.192;5.722;2023-08-31T07:53:00;99162.63;;;17.51;66.10
62548;BME280;48602;45.192;5.722;2023-08-31T07:55:26;99173.84;;;17.56;64.82
62548;BME280;48602;45.192;5.722;2023-08-31T07:57:51;99170.22;;;17.57;64.64
62548;BME280;48602;45.192;5.722;2023-08-31T08:00:17;99173.72;;;17.58;64.56
62548;BME280;48602;45.192;5.722;2023-08-31T08:02:45;99173.63;;;17.59;64.50
62548;BME280;48602;45.192;5.722;2023-08-31T08:05:10;99165.50;;;17.61;64.42
62548;BME280;48602;45.192;5.722;2023-08-31T08:07:36;99162.56;;;17.65;64.23
62548;BME280;48602;45.192;5.722;2023-08-31T08:10:01;99163.09;;;17.70;64.43
62548;BME280;48602;45.192;5.722;2023-08-31T08:12:27;99168.13;;;17.75;64.37
62548;BME280;48602;45.192;5.722;2023-08-31T08:15:01;99172.81;;;17.84;64.08
62548;BME280;48602;45.192;5.722;2023-08-31T08:17:27;99174.03;;;17.93;63.85
62548;BME280;48602;45.192;5.722;2023-08-31T08:19:52;99175.38;;;17.98;63.37
62548;BME280;48602;45.192;5.722;2023-08-31T08:22:17;99164.41;;;18.03;63.66
62548;BME280;48602;45.192;5.722;2023-08-31T08:24:43;99160.31;;;18.10;63.83
62548;BME280;48602;45.192;5.722;2023-08-31T08:27:08;99167.69;;;18.19;63.88
62548;BME280;48602;45.192;5.722;2023-08-31T08:29:34;99164.38;;;18.28;63.67
62548;BME280;48602;45.192;5.722;2023-08-31T08:31:59;99160.09;;;18.38;63.33
62548;BME280;48602;45.192;5.722;2023-08-31T08:34:26;99160.28;;;18.48;62.69
62548;BME280;48602;45.192;5.722;2023-08-31T08:36:52;99161.44;;;18.57;62.44
62548;BME280;48602;45.192;5.722;2023-08-31T08:39:17;99162.09;;;18.60;62.18
62548;BME280;48602;45.192;5.722;2023-08-31T08:41:44;99166.16;;;18.66;62.43
62548;BME280;48602;45.192;5.722;2023-08-31T08:44:10;99175.31;;;18.74;62.22
62548;BME280;48602;45.192;5.722;2023-08-31T08:46:37;99171.22;;;18.81;62.01
62548;BME280;48602;45.192;5.722;2023-08-31T08:49:03;99167.91;;;18.91;61.80
62548;BME280;48602;45.192;5.722;2023-08-31T08:51:30;99173.28;;;19.02;60.77
62548;BME280;48602;45.192;5.722;2023-08-31T08:53:59;99168.38;;;19.08;59.90
62548;BME280;48602;45.192;5.722;2023-08-31T08:56:24;99161.56;;;19.15;59.78
62548;BME280;48602;45.192;5.722;2023-08-31T08:58:50;99162.84;;;19.23;59.91
62548;BME280;48602;45.192;5.722;2023-08-31T09:01:15;99166.00;;;19.28;60.26
62548;BME280;48602;45.192;5.722;2023-08-31T09:03:43;99176.13;;;19.35;60.29
62548;BME280;48602;45.192;5.722;2023-08-31T09:06:08;99173.97;;;19.40;60.15
62548;BME280;48602;45.192;5.722;2023-08-31T09:08:35;99175.19;;;19.47;60.32
62548;BME280;48602;45.192;5.722;2023-08-31T09:11:02;99174.78;;;19.54;59.72
62548;BME280;48602;45.192;5.722;2023-08-31T09:13:28;99171.75;;;19.58;59.97
62548;BME280;48602;45.192;5.722;2023-08-31T09:15:54;99166.66;;;19.66;59.81
62548;BME280;48602;45.192;5.722;2023-08-31T09:18:32;99160.63;;;19.75;59.79
62548;BME280;48602;45.192;5.722;2023-08-31T09:21:01;99160.97;;;19.82;59.46
62548;BME280;48602;45.192;5.722;2023-08-31T09:23:27;99163.31;;;19.86;59.74
62548;BME280;48602;45.192;5.722;2023-08-31T09:25:54;99167.34;;;19.92;59.44
62548;BME280;48602;45.192;5.722;2023-08-31T09:28:21;99159.78;;;19.97;59.62
62548;BME280;48602;45.192;5.722;2023-08-31T09:30:47;99166.25;;;20.06;59.70
62548;BME280;48602;45.192;5.722;2023-08-31T09:33:15;99160.16;;;20.15;60.08
62548;BME280;48602;45.192;5.722;2023-08-31T09:35:51;99168.22;;;20.26;59.53
62548;BME280;48602;45.192;5.722;2023-08-31T09:38:17;99166.44;;;20.38;59.85
62548;BME280;48602;45.192;5.722;2023-08-31T09:40:43;99165.56;;;20.48;59.23
62548;BME280;48602;45.192;5.722;2023-08-31T09:43:08;99159.38;;;20.59;59.27
62548;BME280;48602;45.192;5.722;2023-08-31T09:45:34;99162.00;;;20.70;58.92
62548;BME280;48602;45.192;5.722;2023-08-31T09:48:02;99167.47;;;20.80;58.35
62548;BME280;48602;45.192;5.722;2023-08-31T09:50:33;99157.09;;;20.86;57.69
62548;BME280;48602;45.192;5.722;2023-08-31T09:53:04;99165.22;;;20.96;56.92
62548;BME280;48602;45.192;5.722;2023-08-31T09:55:31;99163.75;;;21.03;56.79
62548;BME280;48602;45.192;5.722;2023-08-31T09:57:59;99158.75;;;21.10;56.56
62548;BME280;48602;45.192;5.722;2023-08-31T10:00:32;99164.09;;;21.21;55.97
62548;BME280;48602;45.192;5.722;2023-08-31T10:03:00;99156.88;;;21.33;55.61
62548;BME280;48602;45.192;5.722;2023-08-31T10:05:26;99148.19;;;21.40;54.94
62548;BME280;48602;45.192;5.722;2023-08-31T10:07:51;99152.16;;;21.46;55.12
62548;BME280;48602;45.192;5.722;2023-08-31T10:10:17;99139.34;;;21.49;54.32
62548;BME280;48602;45.192;5.722;2023-08-31T10:12:48;99133.59;;;21.54;54.90
62548;BME280;48602;45.192;5.722;2023-08-31T10:15:15;99130.53;;;21.58;54.09
62548;BME280;48602;45.192;5.722;2023-08-31T10:17:42;99136.69;;;21.70;54.49
62548;BME280;48602;45.192;5.722;2023-08-31T10:20:10;99134.75;;;21.82;53.94
62548;BME280;48602;45.192;5.722;2023-08-31T10:22:37;99133.00;;;21.92;53.26
62548;BME280;48602;45.192;5.722;2023-08-31T10:25:04;99131.59;;;21.98;52.54
62548;BME280;48602;45.192;5.722;2023-08-31T10:27:43;99130.06;;;21.95;51.89
62548;BME280;48602;45.192;5.722;2023-08-31T10:51:27;99112.00;;;22.27;51.68
62548;BME280;48602;45.192;5.722;2023-08-31T10:54:07;99108.63;;;22.35;50.84
62548;BME280;48602;45.192;5.722;2023-08-31T10:57:24;99107.66;;;22.46;50.21
62548;BME280;48602;45.192;5.722;2023-08-31T11:02:09;99106.88;;;22.64;51.09
62548;BME280;48602;45.192;5.722;2023-08-31T11:07:26;99106.53;;;22.79;49.04
62548;BME280;48602;45.192;5.722;2023-08-31T11:10:24;99104.09;;;22.76;49.15
62548;BME280;48602;45.192;5.722;2023-08-31T11:12:54;99097.84;;;22.75;50.16
62548;BME280;48602;45.192;5.722;2023-08-31T11:15:23;99086.25;;;22.75;49.31
62548;BME280;48602;45.192;5.722;2023-08-31T11:17:53;99103.38;;;22.74;48.44
62548;BME280;48602;45.192;5.722;2023-08-31T11:20:20;99087.50;;;22.71;49.37
62548;BME280;48602;45.192;5.722;2023-08-31T11:22:48;99082.13;;;22.71;49.83
62548;BME280;48602;45.192;5.722;2023-08-31T11:25:20;99088.69;;;22.78;50.14
62548;BME280;48602;45.192;5.722;2023-08-31T11:27:59;99085.72;;;22.81;49.16
62548;BME280;48602;45.192;5.722;2023-08-31T11:30:29;99083.88;;;22.81;49.67
62548;BME280;48602;45.192;5.722;2023-08-31T11:32:56;99080.19;;;22.82;49.73
62548;BME280;48602;45.192;5.722;2023-08-31T11:35:23;99075.13;;;22.89;48.40
62548;BME280;48602;45.192;5.722;2023-08-31T11:37:51;99078.53;;;22.91;50.06
62548;BME280;48602;45.192;5.722;2023-08-31T11:40:17;99078.25;;;22.94;49.47
62548;BME280;48602;45.192;5.722;2023-08-31T11:42:44;99079.09;;;22.94;50.04
62548;BME280;48602;45.192;5.722;2023-08-31T11:45:10;99079.78;;;22.96;49.27
62548;BME280;48602;45.192;5.722;2023-08-31T11:47:38;99085.88;;;22.98;49.26
62548;BME280;48602;45.192;5.722;2023-08-31T11:50:06;99085.16;;;22.96;48.61
62548;BME280;48602;45.192;5.722;2023-08-31T11:52:32;99077.25;;;22.95;49.14
62548;BME280;48602;45.192;5.722;2023-08-31T11:54:57;99075.81;;;23.01;50.11
62548;BME280;48602;45.192;5.722;2023-08-31T11:57:27;99075.56;;;23.04;48.44
62548;BME280;48602;45.192;5.722;2023-08-31T11:59:53;99072.72;;;23.05;48.27
62548;BME280;48602;45.192;5.722;2023-08-31T12:02:20;99079.53;;;23.09;49.20
62548;BME280;48602;45.192;5.722;2023-08-31T12:04:46;99080.91;;;23.13;48.76
62548;BME280;48602;45.192;5.722;2023-08-31T12:07:16;99080.63;;;23.16;48.37
62548;BME280;48602;45.192;5.722;2023-08-31T12:09:42;99073.28;;;23.18;48.02
62548;BME280;48602;45.192;5.722;2023-08-31T12:12:10;99080.22;;;23.21;48.62
62548;BME280;48602;45.192;5.722;2023-08-31T12:14:37;99077.81;;;23.27;48.94
62548;BME280;48602;45.192;5.722;2023-08-31T12:17:06;99081.75;;;23.33;48.98
62548;BME280;48602;45.192;5.722;2023-08-31T12:19:32;99077.22;;;23.33;48.99
62548;BME280;48602;45.192;5.722;2023-08-31T12:21:58;99083.19;;;23.37;48.48
62548;BME280;48602;45.192;5.722;2023-08-31T12:24:24;99088.56;;;23.37;47.56
62548;BME280;48602;45.192;5.722;2023-08-31T12:26:50;99087.00;;;23.35;48.52
62548;BME280;48602;45.192;5.722;2023-08-31T12:29:16;99077.94;;;23.36;47.97
62548;BME280;48602;45.192;5.722;2023-08-31T12:31:42;99081.34;;;23.38;48.15
62548;BME280;48602;45.192;5.722;2023-08-31T12:34:08;99069.03;;;23.45;47.53
62548;BME280;48602;45.192;5.722;2023-08-31T12:36:34;99079.19;;;23.51;47.92
62548;BME280;48602;45.192;5.722;2023-08-31T12:39:02;99070.16;;;23.61;47.39
62548;BME280;48602;45.192;5.722;2023-08-31T12:41:30;99061.47;;;23.67;47.42
62548;BME280;48602;45.192;5.722;2023-08-31T12:43:56;99081.59;;;23.73;46.95
62548;BME280;48602;45.192;5.722;2023-08-31T12:46:22;99067.84;;;23.76;46.32
62548;BME280;48602;45.192;5.722;2023-08-31T12:48:48;99074.63;;;23.80;46.59
62548;BME280;48602;45.192;5.722;2023-08-31T12:51:15;99079.16;;;23.80;46.23
62548;BME280;48602;45.192;5.722;2023-08-31T12:53:40;99070.25;;;23.79;46.06
62548;BME280;48602;45.192;5.722;2023-08-31T12:56:05;99073.75;;;23.80;45.52
62548;BME280;48602;45.192;5.722;2023-08-31T12:58:31;99055.34;;;23.85;44.98
62548;BME280;48602;45.192;5.722;2023-08-31T13:01:00;99050.22;;;23.91;45.73
62548;BME280;48602;45.192;5.722;2023-08-31T13:03:26;99050.59;;;23.96;46.22
62548;BME280;48602;45.192;5.722;2023-08-31T13:05:51;99058.53;;;23.98;45.35
62548;BME280;48602;45.192;5.722;2023-08-31T13:08:17;99066.94;;;23.95;45.09
62548;BME280;48602;45.192;5.722;2023-08-31T13:10:42;99056.31;;;23.93;45.91
62548;BME280;48602;45.192;5.722;2023-08-31T13:13:08;99048.09;;;23.95;45.57
62548;BME280;48602;45.192;5.722;2023-08-31T13:15:33;99038.84;;;23.97;45.29
62548;BME280;48602;45.192;5.722;2023-08-31T13:17:59;99047.63;;;23.99;44.16
62548;BME280;48602;45.192;5.722;2023-08-31T13:20:25;99043.50;;;24.05;45.37
62548;BME280;48602;45.192;5.722;2023-08-31T13:22:50;99031.16;;;24.12;45.19
62548;BME280;48602;45.192;5.722;2023-08-31T13:25:16;99030.81;;;24.15;44.64
62548;BME280;48602;45.192;5.722;2023-08-31T13:27:42;99026.28;;;24.16;44.14
62548;BME280;48602;45.192;5.722;2023-08-31T13:30:08;99039.31;;;24.20;44.36
62548;BME280;48602;45.192;5.722;2023-08-31T13:32:34;99030.09;;;24.23;44.46
62548;BME280;48602;45.192;5.722;2023-08-31T13:34:59;99038.06;;;24.24;43.25